ADDS METAR Data INFO
IDs: Format: Raw Decoded Include TAF

Data at: 1715 UTC 23 Oct 2017

PAGA 231656Z AUTO 00000KT 9SM BKN024 OVC030 M17/M19 A2984 RMK AO2 SNE31 SLP110 P0000 T11721189 FZRANO
PAGA 231646Z AUTO 36003KT 9SM BKN029 OVC035 M17/M19 A2984 RMK AO2 SNE31 P0000 FZRANO
PAGA 231556Z AUTO 36005KT 9SM -SN OVC041 M18/M21 A2984 RMK AO2 SNB28 SLP111 P0000 T11831206 FZRANO
PAGA 231456Z AUTO 00000KT 10SM BKN031 BKN040 OVC055 M20/M22 A2984 RMK AO2 SLP111 T12001217 51009 FZRANO
PAGA 231356Z AUTO 34005KT 10SM CLR M21/M24 A2983 RMK AO2 SLP107 T12111239 FZRANO
PAGA 231256Z AUTO 00000KT 10SM CLR M20/M22 A2983 RMK AO2 SLP105 T12001222 FZRANO
PAGA 231156Z AUTO 36005KT 10SM CLR M20/M22 A2982 RMK AO2 SLP102 60000 T12001222 11161 21206 51017 FZRANO
PAGA 231056Z AUTO 35004KT 10SM CLR M20/M22 A2980 RMK AO2 SNB20E29 SLP097 P0000 T12001222 FZRANO
PAGA 230956Z AUTO 00000KT 10SM CLR M19/M22 A2979 RMK AO2 SLP093 T11941217 FZRANO
PAGA 230856Z AUTO 06005KT 10SM CLR M17/M17 A2976 RMK AO2 SLP084 T11671172 411001222 53016 FZRANO
PAGA 230756Z AUTO 01004KT 10SM CLR M19/M22 A2975 RMK AO2 SLP079 T11941217 FZRANO
PAGA 230656Z AUTO 03003KT 9SM CLR M19/M21 A2973 RMK AO2 SLP072 T11891206 FZRANO
PAGA 230556Z AUTO 02003KT 10SM CLR M18/M20 A2972 RMK AO2 SLP069 T11831200 11100 21183 53016 FZRANO
PAGA 230456Z AUTO 07003KT 10SM CLR M16/M18 A2970 RMK AO2 SLP064 T11611178 FZRANO
PAGA 230356Z AUTO 03004KT 10SM CLR M16/M17 A2968 RMK AO2 SLP057 T11561172 FZRANO
PAGA 230256Z AUTO 01003KT 10SM CLR M15/M17 A2967 RMK AO2 SLP053 T11501172 53015 FZRANO
PAGA 230156Z AUTO 00000KT 9SM CLR M13/M16 A2965 RMK AO2 SLP047 T11281156 FZRANO
PAGA 230056Z AUTO 00000KT 10SM CLR M11/M14 A2964 RMK AO2 SLP043 T11111139 FZRANO
PAGA 222356Z AUTO 00000KT 10SM CLR M11/M14 A2963 RMK AO2 SNB09E19 SLP038 P0000 60000 T11111144 11106 21211 51010 FZRANO
PAGA 222329Z AUTO 00000KT 4SM HZ FEW005 M11/M14 A2963 RMK AO2 SNB09E19 P0000 FZRANO
PAGA 222256Z AUTO 00000KT 6SM HZ CLR M12/M15 A2962 RMK AO2 SLP036 T11221150 FZRANO
PAGA 222156Z AUTO 00000KT 10SM CLR M14/M16 A2961 RMK AO2 SLP034 T11441161 FZRANO
PAGA 222056Z AUTO 00000KT 10SM CLR M17/M18 A2960 RMK AO2 SLP028 T11671183 53017 FZRANO
PAGA 221956Z AUTO 36003KT 5SM BR CLR M18/M19 A2958 RMK AO2 SLP022 T11781194 FZRANO
PAGA 221937Z AUTO 35003KT 3SM BR CLR M18/M21 A2958 RMK AO2 FZRANO
PAGA 221930Z AUTO 00000KT 1 3/4SM BR CLR M19/M21 A2957 RMK AO2 VIS 1V4 FZRANO
PAGA 221856Z AUTO 33003KT 5SM BR CLR M20/M22 A2956 RMK AO2 SLP016 T12001222 FZRANO
PAGA 221851Z AUTO 32003KT 3SM BR CLR M20/M22 A2956 RMK AO2 FZRANO
PAGA 221839Z AUTO 29003KT 1 3/4SM BR CLR M20/M22 A2956 RMK AO2 VIS 1/2V5 FZRANO
PAGA 221756Z AUTO 29003KT 10SM CLR M21/M23 A2955 RMK AO2 SLP011 T12111233 11200 21222 51017 FZRANO
PAGA 221656Z AUTO 00000KT 10SM CLR M22/M25 A2953 RMK AO2 SLP006 T12221250 FZRANO
PAGA 221556Z AUTO 00000KT 10SM CLR M22/M23 A2952 RMK AO2 SLP000 T12171233 FZRANO
PAGA 221456Z AUTO 35004KT 10SM CLR M21/M23 A2950 RMK AO2 SLP994 T12061228 53009 FZRANO
PAGA 221356Z AUTO 36004KT 10SM CLR M20/M23 A2948 RMK AO2 SLP987 T12001228 FZRANO
PAGA 221256Z AUTO 35005KT 10SM CLR M22/M23 A2948 RMK AO2 SLP987 T12171233 FZRANO
PAGA 221156Z AUTO 02003KT 10SM CLR M20/M22 A2947 RMK AO2 SLP984 T12001222 11161 21200 53007 FZRANO
PAGA 221056Z AUTO 01006KT 10SM CLR M19/M21 A2946 RMK AO2 SLP980 T11891211 FZRANO
PAGA 220956Z AUTO 36004KT 10SM CLR M19/M21 A2945 RMK AO2 SLP978 T11891206 FZRANO
PAGA 220856Z AUTO 36004KT 10SM CLR M18/M20 A2945 RMK AO2 SLP977 T11781200 410721178 51008 FZRANO
PAGA 220756Z AUTO 36004KT 10SM CLR M17/M18 A2944 RMK AO2 SLP974 T11671183 FZRANO
PAGA 220656Z AUTO 29003KT 10SM CLR M17/M19 A2943 RMK AO2 SLP971 T11721189 FZRANO
PAGA 220556Z AUTO 00000KT 10SM CLR M16/M18 A2942 RMK AO2 SLP968 T11611183 11072 21161 53004 FZRANO